Ono-I-Lau, Fiji
Current Conditions -  °F | °C
As of 2:00 PM on Tuesday 21 Oct 2014 (Local Time) from NFTF Reporting Station
Rain Showers Rain Showers  
Wind Chill: 77°   Ceiling: 12000
Heat Index: 79°   Visibility: 6mi
Dew Point: 68°   Wind: 0mph
Humidity: 74%   Direction: NA
Pressure: NA   Gusts: NA
Location:  20.67°S, 178.72°W
Report Text: NFTF 210200Z 00000KT 9999 -SHRA FEW010 SCT016TCU BKN120 25/20 Q1015
Loading
Personal Weather Stations






























Interactive Weather Map
Tropical Storm Tracking
New forecast layout! Learn more

10-Day Weather Forecast

Advertisements
Track Severe Weather on mobile